Weather at Hassi R'Mel Airport

Public forecast

Using degrees Celsius for public forecast. Weather courtesy of forecast.io.

Current aviation weather report (METAR) for Hassi R'Mel Airport

Report is more than 6 hours old.

2022/11/14 15:00 (retrieved 2 years ago)

DAFH 141500Z 30008KT CAVOK 23/M01 Q1022

Closest aviation forecast (TAF) to Hassi R'Mel Airport

Forecast is more than 12 hours old.

Closest forecast is Noumérat - Moufdi Zakaria Airport, 40.9 nm (75.7 km) SE.

2023/02/22 18:33 (retrieved 1 year ago)

TAF DAUG 221700Z 2218/2318 26010KT CAVOK BECMG 2219/2221 VRB02KT PROB30 TEMPO 2303/2312 FEW030TCU BECMG 2306/2309 28010KT BECMG 2315/2318 22010KT